Time;durP1;ratioP1;P1;durP2;ratioP2;P2;SDS_P1;SDS_P2;PMS_P1;PMS_P2;Temp;Humidity;BMP_temperature;BMP_pressure;BME280_temperature;BME280_humidity;BME280_pressure;Samples;Min_cycle;Max_cycle;Signal;HPM_P1;HPM_P2
2022/10/22 00:01:27;;;;;;;;;;;;;;;9.31;49.72;99252.55;1678728;85;21127;-70
2022/10/22 00:03:53;;;;;;;;;;;;;;;9.30;49.80;99244.77;1693719;84;20106;-70
2022/10/22 00:06:20;;;;;;;;;;;;;;;9.31;49.82;99241.09;1698604;84;20107;-71
2022/10/22 00:08:47;;;;;;;;;;;;;;;9.31;49.86;99237.11;1690696;84;20115;-70
2022/10/22 00:11:14;;;;;;;;;;;;;;;9.31;49.92;99238.44;1680230;85;20118;-70
2022/10/22 00:13:40;;;;;;;;;;;;;;;9.29;50.01;99229.83;1682481;85;22194;-71
2022/10/22 00:16:08;;;;;;;;;;;;;;;9.31;50.08;99235.30;1682009;85;20181;-70
2022/10/22 00:18:35;;;;;;;;;;;;;;;9.32;50.10;99224.19;1686777;84;20099;-71
2022/10/22 00:21:02;;;;;;;;;;;;;;;9.33;50.12;99230.64;1664816;85;20098;-70
2022/10/22 00:23:29;;;;;;;;;;;;;;;9.33;50.17;99223.20;1662228;85;20102;-72
2022/10/22 00:25:55;;;;;;;;;;;;;;;9.33;50.19;99221.03;1661103;84;21276;-69
2022/10/22 00:28:22;;;;;;;;;;;;;;;9.35;50.23;99223.02;1683426;84;20121;-70
2022/10/22 00:30:56;;;;;;;;;;;;;;;9.37;50.26;99217.87;1692974;84;20109;-69
2022/10/22 00:33:23;;;;;;;;;;;;;;;9.39;50.27;99218.52;1675059;84;20101;-71
2022/10/22 00:35:51;;;;;;;;;;;;;;;9.41;50.21;99212.53;1694473;84;20133;-71
2022/10/22 00:38:17;;;;;;;;;;;;;;;9.45;50.15;99213.04;1694220;84;21272;-70
2022/10/22 00:40:45;;;;;;;;;;;;;;;9.47;50.17;99209.21;1689306;84;20090;-71
2022/10/22 00:43:16;;;;;;;;;;;;;;;9.49;50.13;99199.24;1686118;84;20097;-71
2022/10/22 00:45:44;;;;;;;;;;;;;;;9.53;50.07;99205.05;1674310;84;20144;-70
2022/10/22 00:48:28;;;;;;;;;;;;;;;9.52;50.09;99208.70;1689753;84;20115;-70
2022/10/22 00:51:00;;;;;;;;;;;;;;;9.51;50.06;99201.25;1675210;84;22117;-69
2022/10/22 00:53:38;;;;;;;;;;;;;;;9.50;50.15;99200.91;1667453;84;20158;-71
2022/10/22 00:56:05;;;;;;;;;;;;;;;9.51;50.13;99202.58;1675986;84;20101;-71
2022/10/22 00:58:34;;;;;;;;;;;;;;;9.55;50.12;99188.45;1656354;85;20108;-70
2022/10/22 01:01:00;;;;;;;;;;;;;;;9.56;50.12;99186.97;1677167;84;20461;-71
2022/10/22 01:03:27;;;;;;;;;;;;;;;9.58;50.10;99182.30;1677898;84;22036;-71
2022/10/22 01:05:56;;;;;;;;;;;;;;;9.57;50.19;99180.64;1663913;84;20483;-70
2022/10/22 01:08:58;;;;;;;;;;;;;;;9.56;50.16;99177.67;1682692;84;20147;-72
2022/10/22 01:11:52;;;;;;;;;;;;;;;9.54;50.23;99170.87;1662602;85;20104;-69
2022/10/22 01:14:31;;;;;;;;;;;;;;;9.50;50.39;99173.03;1688812;84;20452;-71
2022/10/22 01:17:03;;;;;;;;;;;;;;;9.48;50.50;99168.89;1688148;84;20526;-71
2022/10/22 01:19:36;;;;;;;;;;;;;;;9.46;50.58;99156.30;1687515;84;20206;-70
2022/10/22 01:22:14;;;;;;;;;;;;;;;9.44;50.64;99157.77;1685533;84;20085;-70
2022/10/22 01:24:53;;;;;;;;;;;;;;;9.44;50.68;99153.79;1665984;84;20098;-70
2022/10/22 01:27:32;;;;;;;;;;;;;;;9.45;50.77;99144.00;1718569;83;20243;-71
2022/10/22 01:30:05;;;;;;;;;;;;;;;9.48;50.75;99137.86;1667550;85;21072;-71
2022/10/22 01:32:44;;;;;;;;;;;;;;;9.48;50.76;99127.24;1682305;84;20127;-70
2022/10/22 01:35:12;;;;;;;;;;;;;;;9.50;50.77;99143.83;1675229;84;20445;-68
2022/10/22 01:37:47;;;;;;;;;;;;;;;9.48;50.79;99148.98;1681350;84;20098;-71
2022/10/22 01:40:14;;;;;;;;;;;;;;;9.43;50.89;99145.52;1676128;84;20410;-71
2022/10/22 01:42:40;;;;;;;;;;;;;;;9.40;50.97;99143.69;1691356;84;21238;-70
2022/10/22 01:45:11;;;;;;;;;;;;;;;9.35;51.10;99141.55;1688345;84;20192;-70
2022/10/22 01:48:02;;;;;;;;;;;;;;;9.29;51.22;99139.08;1715656;83;20435;-69
2022/10/22 01:50:50;;;;;;;;;;;;;;;9.24;51.34;99133.45;1689907;83;20119;-72
2022/10/22 01:53:34;;;;;;;;;;;;;;;9.16;51.57;99134.80;1689443;84;20144;-72
2022/10/22 01:56:13;;;;;;;;;;;;;;;9.08;51.81;99144.59;1718601;83;21220;-71
2022/10/22 01:58:43;;;;;;;;;;;;;;;9.03;51.99;99141.13;1709030;84;20443;-70
2022/10/22 02:01:37;;;;;;;;;;;;;;;8.99;52.14;99142.97;1686648;84;20108;-73
2022/10/22 02:04:23;;;;;;;;;;;;;;;8.96;52.24;99141.48;1702926;84;20088;-70
2022/10/22 02:06:51;;;;;;;;;;;;;;;8.94;52.34;99147.42;1689886;85;20125;-71
2022/10/22 02:09:18;;;;;;;;;;;;;;;8.94;52.42;99147.95;1688031;85;21153;-71
2022/10/22 02:11:44;;;;;;;;;;;;;;;8.95;52.47;99149.59;1718604;83;20427;-71
2022/10/22 02:14:11;;;;;;;;;;;;;;;8.97;52.42;99148.42;1718710;83;20469;-71
2022/10/22 02:16:43;;;;;;;;;;;;;;;8.97;52.47;99151.59;1709140;84;20098;-73
2022/10/22 02:19:26;;;;;;;;;;;;;;;8.95;52.53;99145.61;1702811;83;20090;-73
2022/10/22 02:21:53;;;;;;;;;;;;;;;8.97;52.53;99150.27;1690936;83;21992;-71
2022/10/22 02:24:20;;;;;;;;;;;;;;;8.99;52.53;99150.92;1667784;84;20483;-71
2022/10/22 02:26:56;;;;;;;;;;;;;;;9.00;52.55;99153.40;1668182;86;20154;-73
2022/10/22 02:29:29;;;;;;;;;;;;;;;9.01;52.57;99148.43;1670883;86;20107;-70
2022/10/22 02:31:56;;;;;;;;;;;;;;;9.04;52.49;99139.31;1672949;86;20120;-69
2022/10/22 02:34:24;;;;;;;;;;;;;;;9.06;52.43;99133.33;1674433;86;21125;-70
2022/10/22 02:36:51;;;;;;;;;;;;;;;9.07;52.36;99134.47;1673649;86;20107;-70
2022/10/22 02:39:18;;;;;;;;;;;;;;;9.06;52.41;99135.98;1654353;86;20146;-71
2022/10/22 02:41:44;;;;;;;;;;;;;;;9.02;52.50;99142.11;1645738;86;20112;-72
2022/10/22 02:44:12;;;;;;;;;;;;;;;9.00;52.58;99137.48;1672827;85;20148;-71
2022/10/22 02:46:38;;;;;;;;;;;;;;;9.01;52.64;99138.31;1666408;86;20605;-70
2022/10/22 02:49:04;;;;;;;;;;;;;;;9.01;52.65;99134.33;1672433;85;20449;-71
2022/10/22 02:51:31;;;;;;;;;;;;;;;9.02;52.68;99132.83;1666580;86;20138;-71
2022/10/22 02:53:58;;;;;;;;;;;;;;;9.03;52.67;99127.02;1663850;86;20150;-69
2022/10/22 02:56:24;;;;;;;;;;;;;;;9.05;52.64;99128.52;1669212;86;20134;-70
2022/10/22 02:58:50;;;;;;;;;;;;;;;9.09;52.58;99119.23;1670889;86;21165;-70
2022/10/22 03:01:16;;;;;;;;;;;;;;;9.11;52.60;99125.69;1672789;86;20162;-69
2022/10/22 03:03:44;;;;;;;;;;;;;;;9.13;52.59;99128.50;1672749;85;20111;-70
2022/10/22 03:06:11;;;;;;;;;;;;;;;9.17;52.58;99123.69;1672821;85;20133;-69
2022/10/22 03:08:37;;;;;;;;;;;;;;;9.19;52.51;99125.17;1672518;85;20101;-72
2022/10/22 03:11:03;;;;;;;;;;;;;;;9.23;52.42;99123.83;1673092;85;21254;-69
2022/10/22 03:13:31;;;;;;;;;;;;;;;9.23;52.34;99129.63;1672619;86;20501;-70
2022/10/22 03:15:57;;;;;;;;;;;;;;;9.23;52.34;99124.31;1672580;86;20101;-71
2022/10/22 03:18:23;;;;;;;;;;;;;;;9.23;52.29;99126.48;1672113;86;20440;-71
2022/10/22 03:20:49;;;;;;;;;;;;;;;9.23;52.27;99126.48;1672568;86;20544;-70
2022/10/22 03:23:17;;;;;;;;;;;;;;;9.25;52.30;99121.02;1672741;86;21165;-70
2022/10/22 03:25:44;;;;;;;;;;;;;;;9.24;52.32;99120.19;1706991;84;20085;-72
2022/10/22 03:28:10;;;;;;;;;;;;;;;9.25;52.40;99121.02;1677467;84;20117;-70
2022/10/22 03:30:36;;;;;;;;;;;;;;;9.26;52.41;99125.30;1670340;84;20724;-72
2022/10/22 03:33:03;;;;;;;;;;;;;;;9.24;52.37;99121.51;1712425;84;20089;-69
2022/10/22 03:35:30;;;;;;;;;;;;;;;9.23;52.43;99119.00;1688419;84;21272;-70
2022/10/22 03:37:59;;;;;;;;;;;;;;;9.21;52.44;99115.70;1691594;84;20111;-69
2022/10/22 03:40:25;;;;;;;;;;;;;;;9.20;52.52;99118.05;1677058;84;20145;-70
2022/10/22 03:42:51;;;;;;;;;;;;;;;9.20;52.50;99118.84;1687051;84;20447;-71
2022/10/22 03:45:18;;;;;;;;;;;;;;;9.20;52.48;99112.73;1670523;84;20105;-73
2022/10/22 03:47:44;;;;;;;;;;;;;;;9.20;52.48;99114.06;1684015;84;21182;-73
2022/10/22 03:50:11;;;;;;;;;;;;;;;9.21;52.57;99112.55;1688689;84;20460;-74
2022/10/22 03:52:37;;;;;;;;;;;;;;;9.21;52.63;99106.41;1704962;84;20090;-72
2022/10/22 03:55:04;;;;;;;;;;;;;;;9.21;52.64;99103.76;1701319;83;20123;-71
2022/10/22 03:57:30;;;;;;;;;;;;;;;9.22;52.67;99108.08;1680640;84;20490;-69
2022/10/22 03:59:57;;;;;;;;;;;;;;;9.22;52.68;99101.45;1706656;84;22011;-72
2022/10/22 04:02:23;;;;;;;;;;;;;;;9.23;52.67;99093.30;1682107;84;20077;-71
2022/10/22 04:04:49;;;;;;;;;;;;;;;9.24;52.63;99096.78;1688532;84;20089;-71
2022/10/22 04:07:16;;;;;;;;;;;;;;;9.23;52.72;99096.45;1694008;84;20492;-71
2022/10/22 04:09:44;;;;;;;;;;;;;;;9.21;52.73;99095.30;1698710;84;20086;-71
2022/10/22 04:12:10;;;;;;;;;;;;;;;9.22;52.73;99096.97;1676500;84;21195;-71
2022/10/22 04:14:38;;;;;;;;;;;;;;;9.20;52.75;99089.66;1670221;84;20110;-73
2022/10/22 04:17:05;;;;;;;;;;;;;;;9.19;52.78;99081.38;1676713;84;20249;-71
2022/10/22 04:19:33;;;;;;;;;;;;;;;9.22;52.80;99085.52;1675196;84;20459;-72
2022/10/22 04:22:00;;;;;;;;;;;;;;;9.22;52.74;99088.17;1688185;84;20122;-72
2022/10/22 04:24:28;;;;;;;;;;;;;;;9.21;52.77;99077.22;1678672;84;21156;-71
2022/10/22 04:26:54;;;;;;;;;;;;;;;9.20;52.77;99072.41;1675668;84;20194;-71
2022/10/22 04:29:21;;;;;;;;;;;;;;;9.19;52.81;99072.09;1680814;84;20136;-71
2022/10/22 04:31:47;;;;;;;;;;;;;;;9.19;52.85;99071.26;1685196;84;20161;-70
2022/10/22 04:34:13;;;;;;;;;;;;;;;9.19;52.84;99072.09;1670190;84;20111;-71
2022/10/22 04:36:40;;;;;;;;;;;;;;;9.17;52.90;99063.98;1688023;84;21147;-70
2022/10/22 04:39:06;;;;;;;;;;;;;;;9.16;52.93;99064.96;1678092;84;20118;-70
2022/10/22 04:41:34;;;;;;;;;;;;;;;9.15;52.96;99060.67;1677912;84;20171;-72
2022/10/22 04:44:00;;;;;;;;;;;;;;;9.16;52.98;99067.12;1704416;84;20758;-71
2022/10/22 04:46:28;;;;;;;;;;;;;;;9.18;52.98;99066.94;1705503;84;20095;-69
2022/10/22 04:48:54;;;;;;;;;;;;;;;9.18;52.99;99068.27;1695804;84;21887;-71
2022/10/22 04:51:22;;;;;;;;;;;;;;;9.18;52.96;99074.90;1707512;84;20172;-70
2022/10/22 04:53:49;;;;;;;;;;;;;;;9.20;52.94;99077.71;1683325;84;20171;-72
2022/10/22 04:56:20;;;;;;;;;;;;;;;9.20;52.95;99080.37;1701885;83;20145;-71
2022/10/22 04:58:47;;;;;;;;;;;;;;;9.21;52.98;99078.55;1699462;84;20430;-71
2022/10/22 05:01:16;;;;;;;;;;;;;;;9.20;52.96;99075.58;1694817;84;21887;-70
2022/10/22 05:03:43;;;;;;;;;;;;;;;9.22;52.95;99078.89;1698739;84;20440;-70
2022/10/22 05:06:09;;;;;;;;;;;;;;;9.22;52.98;99074.91;1683092;84;20103;-70
2022/10/22 05:08:36;;;;;;;;;;;;;;;9.23;52.95;99081.36;1688153;84;20144;-69
2022/10/22 05:11:11;;;;;;;;;;;;;;;9.24;53.02;99072.41;1670344;84;20412;-70
2022/10/22 05:13:38;;;;;;;;;;;;;;;9.25;53.01;99075.89;1676092;84;21206;-70
2022/10/22 05:16:05;;;;;;;;;;;;;;;9.27;53.02;99071.23;1699082;84;20146;-69
2022/10/22 05:18:35;;;;;;;;;;;;;;;9.27;53.09;99071.23;1682763;84;20131;-70
2022/10/22 05:21:03;;;;;;;;;;;;;;;9.27;53.13;99073.89;1678145;84;20507;-69
2022/10/22 05:23:30;;;;;;;;;;;;;;;9.27;53.22;99077.38;1694317;83;20138;-70
2022/10/22 05:25:56;;;;;;;;;;;;;;;9.29;53.23;99070.06;1671348;85;21295;-70
2022/10/22 05:28:23;;;;;;;;;;;;;;;9.30;53.29;99077.53;1668474;86;20105;-70
2022/10/22 05:30:56;;;;;;;;;;;;;;;9.32;53.31;99070.22;1672431;85;20098;-70
2022/10/22 05:33:22;;;;;;;;;;;;;;;9.36;53.25;99075.50;1671770;86;20844;-70
2022/10/22 05:35:49;;;;;;;;;;;;;;;9.38;53.21;99070.87;1662873;86;20177;-70
2022/10/22 05:38:15;;;;;;;;;;;;;;;9.38;53.25;99068.21;1670672;85;21166;-70
2022/10/22 05:40:42;;;;;;;;;;;;;;;9.41;53.17;99078.46;1668257;85;20104;-70
2022/10/22 05:43:08;;;;;;;;;;;;;;;9.43;53.10;99080.95;1672395;86;20146;-70
2022/10/22 05:45:36;;;;;;;;;;;;;;;9.44;53.09;99075.47;1671652;86;20121;-70
2022/10/22 05:48:03;;;;;;;;;;;;;;;9.50;52.97;99071.30;1671350;86;20229;-70
2022/10/22 05:50:31;;;;;;;;;;;;;;;9.52;52.91;99081.23;1669959;86;20162;-71
2022/10/22 05:52:57;;;;;;;;;;;;;;;9.55;52.90;99083.05;1667692;86;20151;-71
2022/10/22 05:55:24;;;;;;;;;;;;;;;9.59;52.79;99075.58;1668087;86;20135;-73
2022/10/22 05:57:50;;;;;;;;;;;;;;;9.61;52.69;99074.41;1667616;86;20096;-70
2022/10/22 06:00:16;;;;;;;;;;;;;;;9.64;52.67;99083.36;1672244;86;20106;-70
2022/10/22 06:02:42;;;;;;;;;;;;;;;9.67;52.68;99084.31;1671645;85;21165;-70
